sensor_id;sensor_type;location;lat;lon;timestamp;P1;durP1;ratioP1;P2;durP2;ratioP2
57087;SDS011;42965;52.846;6.614;2024-03-22T00:02:08;42.42;;;34.78;;
57087;SDS011;42965;52.846;6.614;2024-03-22T00:04:37;45.47;;;35.33;;
57087;SDS011;42965;52.846;6.614;2024-03-22T00:07:07;45.58;;;36.03;;
57087;SDS011;42965;52.846;6.614;2024-03-22T00:09:33;45.85;;;35.80;;
57087;SDS011;42965;52.846;6.614;2024-03-22T00:12:02;48.17;;;36.17;;
57087;SDS011;42965;52.846;6.614;2024-03-22T00:14:30;50.00;;;37.80;;
57087;SDS011;42965;52.846;6.614;2024-03-22T00:16:56;50.78;;;38.38;;
57087;SDS011;42965;52.846;6.614;2024-03-22T00:19:23;48.65;;;37.72;;
57087;SDS011;42965;52.846;6.614;2024-03-22T00:21:49;50.70;;;38.80;;
57087;SDS011;42965;52.846;6.614;2024-03-22T00:24:15;49.50;;;39.65;;
57087;SDS011;42965;52.846;6.614;2024-03-22T00:26:41;50.55;;;38.95;;
57087;SDS011;42965;52.846;6.614;2024-03-22T00:29:14;52.17;;;39.42;;
57087;SDS011;42965;52.846;6.614;2024-03-22T00:31:41;55.47;;;42.05;;
57087;SDS011;42965;52.846;6.614;2024-03-22T00:34:07;54.35;;;40.30;;
57087;SDS011;42965;52.846;6.614;2024-03-22T00:36:34;55.95;;;42.10;;
57087;SDS011;42965;52.846;6.614;2024-03-22T00:39:00;55.55;;;40.25;;
57087;SDS011;42965;52.846;6.614;2024-03-22T00:41:26;54.50;;;40.75;;
57087;SDS011;42965;52.846;6.614;2024-03-22T00:43:52;55.28;;;41.40;;
57087;SDS011;42965;52.846;6.614;2024-03-22T00:46:19;57.42;;;39.72;;
57087;SDS011;42965;52.846;6.614;2024-03-22T00:48:45;60.97;;;45.63;;
57087;SDS011;42965;52.846;6.614;2024-03-22T00:51:11;58.72;;;41.88;;
57087;SDS011;42965;52.846;6.614;2024-03-22T00:53:37;57.33;;;42.28;;
57087;SDS011;42965;52.846;6.614;2024-03-22T00:56:03;58.17;;;43.65;;
57087;SDS011;42965;52.846;6.614;2024-03-22T00:58:33;58.05;;;42.75;;
57087;SDS011;42965;52.846;6.614;2024-03-22T01:00:59;60.65;;;43.35;;
57087;SDS011;42965;52.846;6.614;2024-03-22T01:03:25;60.45;;;45.03;;
57087;SDS011;42965;52.846;6.614;2024-03-22T01:05:51;61.72;;;45.00;;
57087;SDS011;42965;52.846;6.614;2024-03-22T01:08:19;60.10;;;44.42;;
57087;SDS011;42965;52.846;6.614;2024-03-22T01:10:46;57.45;;;43.10;;
57087;SDS011;42965;52.846;6.614;2024-03-22T01:13:12;61.63;;;45.88;;
57087;SDS011;42965;52.846;6.614;2024-03-22T01:15:38;60.47;;;44.75;;
57087;SDS011;42965;52.846;6.614;2024-03-22T01:18:04;63.97;;;46.25;;
57087;SDS011;42965;52.846;6.614;2024-03-22T01:20:31;62.13;;;45.17;;
57087;SDS011;42965;52.846;6.614;2024-03-22T01:22:59;64.47;;;47.70;;
57087;SDS011;42965;52.846;6.614;2024-03-22T01:25:26;65.40;;;46.90;;
57087;SDS011;42965;52.846;6.614;2024-03-22T01:27:53;66.50;;;48.78;;
57087;SDS011;42965;52.846;6.614;2024-03-22T01:30:20;66.22;;;44.92;;
57087;SDS011;42965;52.846;6.614;2024-03-22T01:32:47;63.00;;;46.22;;
57087;SDS011;42965;52.846;6.614;2024-03-22T01:35:13;71.35;;;49.47;;
57087;SDS011;42965;52.846;6.614;2024-03-22T01:37:39;66.30;;;47.33;;
57087;SDS011;42965;52.846;6.614;2024-03-22T01:40:07;66.20;;;48.97;;
57087;SDS011;42965;52.846;6.614;2024-03-22T01:42:33;67.97;;;48.80;;
57087;SDS011;42965;52.846;6.614;2024-03-22T01:45:00;68.78;;;47.63;;
57087;SDS011;42965;52.846;6.614;2024-03-22T01:47:26;64.63;;;46.42;;
57087;SDS011;42965;52.846;6.614;2024-03-22T01:49:53;69.28;;;48.60;;
57087;SDS011;42965;52.846;6.614;2024-03-22T01:52:21;67.05;;;47.83;;
57087;SDS011;42965;52.846;6.614;2024-03-22T01:54:47;67.57;;;48.53;;
57087;SDS011;42965;52.846;6.614;2024-03-22T01:57:15;64.93;;;48.25;;
57087;SDS011;42965;52.846;6.614;2024-03-22T01:59:41;65.85;;;45.65;;
57087;SDS011;42965;52.846;6.614;2024-03-22T02:02:08;70.38;;;50.10;;
57087;SDS011;42965;52.846;6.614;2024-03-22T02:04:34;70.28;;;50.47;;
57087;SDS011;42965;52.846;6.614;2024-03-22T02:07:00;66.85;;;49.25;;
57087;SDS011;42965;52.846;6.614;2024-03-22T02:09:26;69.30;;;48.55;;
57087;SDS011;42965;52.846;6.614;2024-03-22T02:11:53;65.88;;;48.88;;
57087;SDS011;42965;52.846;6.614;2024-03-22T02:14:19;74.40;;;50.08;;
57087;SDS011;42965;52.846;6.614;2024-03-22T02:16:45;71.65;;;50.25;;
57087;SDS011;42965;52.846;6.614;2024-03-22T02:19:11;66.45;;;48.78;;
57087;SDS011;42965;52.846;6.614;2024-03-22T02:21:39;75.20;;;51.47;;
57087;SDS011;42965;52.846;6.614;2024-03-22T02:24:05;71.60;;;48.70;;
57087;SDS011;42965;52.846;6.614;2024-03-22T02:29:39;71.13;;;49.08;;
57087;SDS011;42965;52.846;6.614;2024-03-22T02:32:06;69.03;;;50.25;;
57087;SDS011;42965;52.846;6.614;2024-03-22T02:34:35;71.07;;;49.47;;
57087;SDS011;42965;52.846;6.614;2024-03-22T02:37:02;72.97;;;51.42;;
57087;SDS011;42965;52.846;6.614;2024-03-22T02:39:28;74.90;;;50.20;;
57087;SDS011;42965;52.846;6.614;2024-03-22T02:41:54;74.68;;;51.72;;
57087;SDS011;42965;52.846;6.614;2024-03-22T02:44:21;73.60;;;53.45;;
57087;SDS011;42965;52.846;6.614;2024-03-22T02:46:48;72.47;;;51.03;;
57087;SDS011;42965;52.846;6.614;2024-03-22T02:49:14;71.65;;;49.60;;
57087;SDS011;42965;52.846;6.614;2024-03-22T02:51:40;71.20;;;50.85;;
57087;SDS011;42965;52.846;6.614;2024-03-22T02:54:06;76.18;;;51.83;;
57087;SDS011;42965;52.846;6.614;2024-03-22T02:56:33;71.47;;;51.92;;
57087;SDS011;42965;52.846;6.614;2024-03-22T02:58:59;74.55;;;51.33;;
57087;SDS011;42965;52.846;6.614;2024-03-22T03:01:25;77.30;;;52.88;;
57087;SDS011;42965;52.846;6.614;2024-03-22T03:03:52;74.65;;;50.72;;
57087;SDS011;42965;52.846;6.614;2024-03-22T03:06:18;79.15;;;52.28;;
57087;SDS011;42965;52.846;6.614;2024-03-22T03:08:45;70.90;;;50.83;;
57087;SDS011;42965;52.846;6.614;2024-03-22T03:11:14;78.80;;;55.33;;
57087;SDS011;42965;52.846;6.614;2024-03-22T03:13:40;77.45;;;54.05;;
57087;SDS011;42965;52.846;6.614;2024-03-22T03:16:07;73.07;;;51.53;;
57087;SDS011;42965;52.846;6.614;2024-03-22T03:18:33;77.03;;;52.20;;
57087;SDS011;42965;52.846;6.614;2024-03-22T03:20:59;76.80;;;52.20;;
57087;SDS011;42965;52.846;6.614;2024-03-22T03:23:26;81.65;;;54.42;;
57087;SDS011;42965;52.846;6.614;2024-03-22T03:25:53;69.88;;;50.50;;
57087;SDS011;42965;52.846;6.614;2024-03-22T03:28:19;74.82;;;54.15;;
57087;SDS011;42965;52.846;6.614;2024-03-22T03:30:45;74.45;;;53.25;;
57087;SDS011;42965;52.846;6.614;2024-03-22T03:33:11;76.55;;;53.70;;
57087;SDS011;42965;52.846;6.614;2024-03-22T03:35:37;71.40;;;51.20;;
57087;SDS011;42965;52.846;6.614;2024-03-22T03:38:04;75.35;;;50.55;;
57087;SDS011;42965;52.846;6.614;2024-03-22T03:40:30;70.60;;;51.70;;
57087;SDS011;42965;52.846;6.614;2024-03-22T03:42:57;74.18;;;50.30;;
57087;SDS011;42965;52.846;6.614;2024-03-22T03:45:23;75.28;;;52.30;;
57087;SDS011;42965;52.846;6.614;2024-03-22T03:47:49;74.32;;;52.05;;
57087;SDS011;42965;52.846;6.614;2024-03-22T03:50:15;70.18;;;49.35;;
57087;SDS011;42965;52.846;6.614;2024-03-22T03:52:41;73.97;;;49.30;;
57087;SDS011;42965;52.846;6.614;2024-03-22T03:55:07;74.40;;;51.70;;
57087;SDS011;42965;52.846;6.614;2024-03-22T03:57:34;68.30;;;48.13;;
57087;SDS011;42965;52.846;6.614;2024-03-22T04:00:00;73.07;;;48.95;;
57087;SDS011;42965;52.846;6.614;2024-03-22T04:02:26;69.00;;;47.40;;
57087;SDS011;42965;52.846;6.614;2024-03-22T04:04:52;69.68;;;48.25;;
57087;SDS011;42965;52.846;6.614;2024-03-22T04:07:22;69.47;;;49.10;;
57087;SDS011;42965;52.846;6.614;2024-03-22T04:09:48;68.43;;;47.90;;
57087;SDS011;42965;52.846;6.614;2024-03-22T04:12:14;68.53;;;48.58;;
57087;SDS011;42965;52.846;6.614;2024-03-22T04:14:40;65.53;;;47.28;;
57087;SDS011;42965;52.846;6.614;2024-03-22T04:17:06;70.10;;;50.17;;
57087;SDS011;42965;52.846;6.614;2024-03-22T04:19:32;75.40;;;51.40;;
57087;SDS011;42965;52.846;6.614;2024-03-22T04:22:00;72.32;;;50.35;;
57087;SDS011;42965;52.846;6.614;2024-03-22T04:24:27;74.10;;;50.63;;
57087;SDS011;42965;52.846;6.614;2024-03-22T04:26:53;66.82;;;49.15;;
57087;SDS011;42965;52.846;6.614;2024-03-22T04:29:19;74.32;;;50.83;;
57087;SDS011;42965;52.846;6.614;2024-03-22T04:31:45;74.05;;;49.83;;
57087;SDS011;42965;52.846;6.614;2024-03-22T04:34:11;69.55;;;48.45;;
57087;SDS011;42965;52.846;6.614;2024-03-22T04:36:37;75.57;;;50.33;;
57087;SDS011;42965;52.846;6.614;2024-03-22T04:39:03;71.85;;;47.35;;
57087;SDS011;42965;52.846;6.614;2024-03-22T04:41:30;72.70;;;50.08;;
57087;SDS011;42965;52.846;6.614;2024-03-22T04:43:56;76.70;;;48.97;;
57087;SDS011;42965;52.846;6.614;2024-03-22T04:46:22;67.95;;;50.40;;
57087;SDS011;42965;52.846;6.614;2024-03-22T04:48:48;72.07;;;48.35;;
57087;SDS011;42965;52.846;6.614;2024-03-22T04:51:14;75.53;;;50.78;;
57087;SDS011;42965;52.846;6.614;2024-03-22T04:53:41;80.45;;;51.20;;
57087;SDS011;42965;52.846;6.614;2024-03-22T04:56:07;77.88;;;50.83;;
57087;SDS011;42965;52.846;6.614;2024-03-22T04:58:35;69.15;;;48.35;;
57087;SDS011;42965;52.846;6.614;2024-03-22T05:01:01;76.93;;;52.30;;
57087;SDS011;42965;52.846;6.614;2024-03-22T05:03:27;78.47;;;50.80;;
57087;SDS011;42965;52.846;6.614;2024-03-22T05:05:53;77.20;;;51.40;;
57087;SDS011;42965;52.846;6.614;2024-03-22T05:08:20;70.50;;;49.72;;
57087;SDS011;42965;52.846;6.614;2024-03-22T05:10:47;69.95;;;48.10;;
57087;SDS011;42965;52.846;6.614;2024-03-22T05:13:13;71.43;;;49.92;;
57087;SDS011;42965;52.846;6.614;2024-03-22T05:15:39;77.05;;;51.75;;
57087;SDS011;42965;52.846;6.614;2024-03-22T05:18:05;78.70;;;50.63;;
57087;SDS011;42965;52.846;6.614;2024-03-22T05:20:32;75.15;;;52.22;;
57087;SDS011;42965;52.846;6.614;2024-03-22T05:22:58;73.57;;;48.85;;
57087;SDS011;42965;52.846;6.614;2024-03-22T05:25:25;69.80;;;46.10;;
57087;SDS011;42965;52.846;6.614;2024-03-22T05:27:52;72.15;;;48.65;;
57087;SDS011;42965;52.846;6.614;2024-03-22T05:30:18;73.05;;;49.10;;
57087;SDS011;42965;52.846;6.614;2024-03-22T05:32:44;67.72;;;47.95;;
57087;SDS011;42965;52.846;6.614;2024-03-22T05:35:10;73.82;;;49.10;;
57087;SDS011;42965;52.846;6.614;2024-03-22T05:37:36;74.40;;;48.58;;
57087;SDS011;42965;52.846;6.614;2024-03-22T05:40:03;70.10;;;47.45;;
57087;SDS011;42965;52.846;6.614;2024-03-22T05:42:30;71.75;;;46.67;;
57087;SDS011;42965;52.846;6.614;2024-03-22T05:44:56;70.82;;;46.28;;
57087;SDS011;42965;52.846;6.614;2024-03-22T05:47:23;73.63;;;48.00;;
57087;SDS011;42965;52.846;6.614;2024-03-22T05:49:49;71.70;;;44.60;;
57087;SDS011;42965;52.846;6.614;2024-03-22T05:52:18;72.70;;;47.85;;
57087;SDS011;42965;52.846;6.614;2024-03-22T05:54:44;76.75;;;48.40;;
57087;SDS011;42965;52.846;6.614;2024-03-22T05:57:11;77.82;;;46.03;;
57087;SDS011;42965;52.846;6.614;2024-03-22T05:59:37;73.75;;;47.67;;
57087;SDS011;42965;52.846;6.614;2024-03-22T06:02:04;77.38;;;48.42;;
57087;SDS011;42965;52.846;6.614;2024-03-22T06:04:30;85.15;;;49.35;;
57087;SDS011;42965;52.846;6.614;2024-03-22T06:07:00;70.55;;;46.88;;
57087;SDS011;42965;52.846;6.614;2024-03-22T06:09:29;70.70;;;45.20;;
57087;SDS011;42965;52.846;6.614;2024-03-22T06:12:14;76.80;;;45.92;;
57087;SDS011;42965;52.846;6.614;2024-03-22T06:14:44;74.82;;;46.85;;
57087;SDS011;42965;52.846;6.614;2024-03-22T06:17:12;79.95;;;48.78;;
57087;SDS011;42965;52.846;6.614;2024-03-22T06:19:39;73.60;;;46.85;;
57087;SDS011;42965;52.846;6.614;2024-03-22T06:22:05;73.63;;;47.70;;
57087;SDS011;42965;52.846;6.614;2024-03-22T06:24:32;76.05;;;48.35;;
57087;SDS011;42965;52.846;6.614;2024-03-22T06:26:59;76.20;;;47.72;;
57087;SDS011;42965;52.846;6.614;2024-03-22T06:29:25;69.43;;;46.03;;
57087;SDS011;42965;52.846;6.614;2024-03-22T06:31:52;70.63;;;44.88;;
57087;SDS011;42965;52.846;6.614;2024-03-22T06:34:18;67.25;;;44.10;;
57087;SDS011;42965;52.846;6.614;2024-03-22T06:36:45;68.95;;;42.40;;
57087;SDS011;42965;52.846;6.614;2024-03-22T06:39:12;69.40;;;42.42;;
57087;SDS011;42965;52.846;6.614;2024-03-22T06:41:40;72.25;;;44.90;;
57087;SDS011;42965;52.846;6.614;2024-03-22T06:44:06;75.00;;;45.15;;
57087;SDS011;42965;52.846;6.614;2024-03-22T06:46:34;69.15;;;42.53;;
57087;SDS011;42965;52.846;6.614;2024-03-22T06:49:01;65.07;;;42.38;;
57087;SDS011;42965;52.846;6.614;2024-03-22T06:51:27;59.33;;;39.85;;
57087;SDS011;42965;52.846;6.614;2024-03-22T06:53:53;66.80;;;42.85;;
57087;SDS011;42965;52.846;6.614;2024-03-22T06:56:19;65.40;;;40.10;;
57087;SDS011;42965;52.846;6.614;2024-03-22T06:58:46;66.65;;;41.30;;
57087;SDS011;42965;52.846;6.614;2024-03-22T07:01:12;65.53;;;40.05;;
57087;SDS011;42965;52.846;6.614;2024-03-22T07:03:38;58.10;;;39.60;;
57087;SDS011;42965;52.846;6.614;2024-03-22T07:06:05;57.80;;;38.83;;
57087;SDS011;42965;52.846;6.614;2024-03-22T07:08:33;66.50;;;41.08;;
57087;SDS011;42965;52.846;6.614;2024-03-22T07:11:05;61.63;;;41.63;;
57087;SDS011;42965;52.846;6.614;2024-03-22T07:13:32;65.10;;;39.10;;
57087;SDS011;42965;52.846;6.614;2024-03-22T07:15:58;55.25;;;37.03;;
57087;SDS011;42965;52.846;6.614;2024-03-22T07:18:24;59.60;;;38.72;;
57087;SDS011;42965;52.846;6.614;2024-03-22T07:20:50;57.22;;;38.30;;
57087;SDS011;42965;52.846;6.614;2024-03-22T07:23:17;54.63;;;37.92;;
57087;SDS011;42965;52.846;6.614;2024-03-22T07:25:43;54.85;;;36.53;;
57087;SDS011;42965;52.846;6.614;2024-03-22T07:28:12;57.88;;;37.45;;
57087;SDS011;42965;52.846;6.614;2024-03-22T07:30:38;49.42;;;33.88;;
57087;SDS011;42965;52.846;6.614;2024-03-22T07:33:04;54.40;;;35.35;;
57087;SDS011;42965;52.846;6.614;2024-03-22T07:35:30;50.33;;;35.15;;
57087;SDS011;42965;52.846;6.614;2024-03-22T07:37:56;50.17;;;34.50;;
57087;SDS011;42965;52.846;6.614;2024-03-22T07:40:22;45.58;;;31.70;;
57087;SDS011;42965;52.846;6.614;2024-03-22T07:42:49;56.30;;;33.63;;
57087;SDS011;42965;52.846;6.614;2024-03-22T07:45:15;46.08;;;30.58;;
57087;SDS011;42965;52.846;6.614;2024-03-22T07:47:41;51.22;;;32.05;;
57087;SDS011;42965;52.846;6.614;2024-03-22T07:50:09;47.30;;;30.92;;
57087;SDS011;42965;52.846;6.614;2024-03-22T07:52:35;44.85;;;32.42;;
57087;SDS011;42965;52.846;6.614;2024-03-22T07:55:01;46.47;;;31.77;;
57087;SDS011;42965;52.846;6.614;2024-03-22T07:57:29;47.13;;;31.88;;
57087;SDS011;42965;52.846;6.614;2024-03-22T07:59:58;47.42;;;31.42;;
57087;SDS011;42965;52.846;6.614;2024-03-22T08:02:24;46.85;;;29.95;;
57087;SDS011;42965;52.846;6.614;2024-03-22T08:04:50;46.10;;;29.55;;
57087;SDS011;42965;52.846;6.614;2024-03-22T08:07:16;48.25;;;29.65;;
57087;SDS011;42965;52.846;6.614;2024-03-22T08:09:42;46.15;;;29.08;;
57087;SDS011;42965;52.846;6.614;2024-03-22T08:12:08;50.97;;;30.10;;
57087;SDS011;42965;52.846;6.614;2024-03-22T08:14:35;42.88;;;28.38;;
57087;SDS011;42965;52.846;6.614;2024-03-22T08:17:01;49.70;;;28.55;;
57087;SDS011;42965;52.846;6.614;2024-03-22T08:19:28;42.20;;;28.95;;
57087;SDS011;42965;52.846;6.614;2024-03-22T08:21:55;37.63;;;27.85;;
57087;SDS011;42965;52.846;6.614;2024-03-22T08:24:21;51.05;;;30.02;;
57087;SDS011;42965;52.846;6.614;2024-03-22T08:26:47;38.92;;;27.58;;
57087;SDS011;42965;52.846;6.614;2024-03-22T08:29:14;48.63;;;28.50;;
57087;SDS011;42965;52.846;6.614;2024-03-22T08:31:40;48.13;;;30.67;;
57087;SDS011;42965;52.846;6.614;2024-03-22T08:34:07;45.92;;;30.13;;
57087;SDS011;42965;52.846;6.614;2024-03-22T08:36:36;44.35;;;28.13;;
57087;SDS011;42965;52.846;6.614;2024-03-22T08:39:03;54.00;;;30.70;;
57087;SDS011;42965;52.846;6.614;2024-03-22T08:41:30;43.05;;;29.10;;
57087;SDS011;42965;52.846;6.614;2024-03-22T08:43:57;43.42;;;28.10;;
57087;SDS011;42965;52.846;6.614;2024-03-22T08:46:23;37.72;;;27.15;;
57087;SDS011;42965;52.846;6.614;2024-03-22T08:48:52;45.47;;;27.42;;
57087;SDS011;42965;52.846;6.614;2024-03-22T08:51:20;51.15;;;28.88;;
57087;SDS011;42965;52.846;6.614;2024-03-22T08:53:47;46.70;;;28.20;;
57087;SDS011;42965;52.846;6.614;2024-03-22T08:56:13;49.15;;;26.63;;
57087;SDS011;42965;52.846;6.614;2024-03-22T08:58:40;42.13;;;25.95;;
57087;SDS011;42965;52.846;6.614;2024-03-22T09:01:06;43.67;;;26.70;;
57087;SDS011;42965;52.846;6.614;2024-03-22T09:03:36;42.67;;;25.80;;
57087;SDS011;42965;52.846;6.614;2024-03-22T09:06:02;39.55;;;25.45;;
57087;SDS011;42965;52.846;6.614;2024-03-22T09:08:28;41.28;;;26.52;;
57087;SDS011;42965;52.846;6.614;2024-03-22T09:10:55;45.80;;;26.45;;
57087;SDS011;42965;52.846;6.614;2024-03-22T09:13:21;41.25;;;24.45;;
57087;SDS011;42965;52.846;6.614;2024-03-22T09:15:47;47.03;;;26.27;;
57087;SDS011;42965;52.846;6.614;2024-03-22T09:18:14;46.40;;;26.67;;
57087;SDS011;42965;52.846;6.614;2024-03-22T09:20:41;45.35;;;26.17;;
57087;SDS011;42965;52.846;6.614;2024-03-22T09:23:07;41.30;;;24.83;;
57087;SDS011;42965;52.846;6.614;2024-03-22T09:25:33;40.80;;;25.15;;
57087;SDS011;42965;52.846;6.614;2024-03-22T09:28:02;39.38;;;23.58;;
57087;SDS011;42965;52.846;6.614;2024-03-22T09:30:29;42.60;;;25.10;;
57087;SDS011;42965;52.846;6.614;2024-03-22T09:32:55;44.78;;;25.85;;
57087;SDS011;42965;52.846;6.614;2024-03-22T09:35:21;37.55;;;24.85;;
57087;SDS011;42965;52.846;6.614;2024-03-22T09:37:48;39.58;;;23.98;;
57087;SDS011;42965;52.846;6.614;2024-03-22T09:40:14;36.58;;;24.08;;
57087;SDS011;42965;52.846;6.614;2024-03-22T09:42:41;36.38;;;23.88;;
57087;SDS011;42965;52.846;6.614;2024-03-22T09:45:08;36.88;;;24.15;;
57087;SDS011;42965;52.846;6.614;2024-03-22T09:47:37;36.70;;;23.05;;
57087;SDS011;42965;52.846;6.614;2024-03-22T09:50:06;37.70;;;24.00;;
57087;SDS011;42965;52.846;6.614;2024-03-22T09:52:34;33.05;;;22.38;;
57087;SDS011;42965;52.846;6.614;2024-03-22T09:55:04;42.88;;;22.67;;
57087;SDS011;42965;52.846;6.614;2024-03-22T09:57:31;31.25;;;21.88;;
57087;SDS011;42965;52.846;6.614;2024-03-22T09:59:59;29.60;;;21.23;;
57087;SDS011;42965;52.846;6.614;2024-03-22T10:02:37;31.70;;;20.20;;
57087;SDS011;42965;52.846;6.614;2024-03-22T10:05:04;29.10;;;20.80;;
57087;SDS011;42965;52.846;6.614;2024-03-22T10:07:33;35.15;;;21.35;;
57087;SDS011;42965;52.846;6.614;2024-03-22T10:10:00;30.73;;;19.90;;
57087;SDS011;42965;52.846;6.614;2024-03-22T10:12:27;30.35;;;21.42;;
57087;SDS011;42965;52.846;6.614;2024-03-22T10:14:53;25.25;;;19.95;;
57087;SDS011;42965;52.846;6.614;2024-03-22T10:17:20;27.60;;;19.75;;
57087;SDS011;42965;52.846;6.614;2024-03-22T10:19:48;26.15;;;19.63;;
57087;SDS011;42965;52.846;6.614;2024-03-22T10:22:15;28.48;;;20.17;;
57087;SDS011;42965;52.846;6.614;2024-03-22T10:24:43;27.38;;;19.65;;
57087;SDS011;42965;52.846;6.614;2024-03-22T10:27:09;23.98;;;19.88;;
57087;SDS011;42965;52.846;6.614;2024-03-22T10:29:36;25.52;;;20.65;;
57087;SDS011;42965;52.846;6.614;2024-03-22T10:32:03;25.20;;;18.83;;
57087;SDS011;42965;52.846;6.614;2024-03-22T10:34:30;25.58;;;18.67;;
57087;SDS011;42965;52.846;6.614;2024-03-22T10:37:01;21.65;;;17.60;;
57087;SDS011;42965;52.846;6.614;2024-03-22T10:39:31;22.88;;;16.60;;
57087;SDS011;42965;52.846;6.614;2024-03-22T10:41:59;24.05;;;16.33;;
57087;SDS011;42965;52.846;6.614;2024-03-22T10:44:25;20.70;;;15.80;;
57087;SDS011;42965;52.846;6.614;2024-03-22T10:46:51;19.73;;;15.93;;
57087;SDS011;42965;52.846;6.614;2024-03-22T10:51:51;18.58;;;12.70;;
57087;SDS011;42965;52.846;6.614;2024-03-22T10:54:22;14.73;;;12.50;;
57087;SDS011;42965;52.846;6.614;2024-03-22T10:56:52;20.98;;;13.57;;
57087;SDS011;42965;52.846;6.614;2024-03-22T10:59:20;13.70;;;11.45;;
57087;SDS011;42965;52.846;6.614;2024-03-22T11:01:48;17.70;;;12.35;;
57087;SDS011;42965;52.846;6.614;2024-03-22T11:04:16;14.95;;;12.25;;
57087;SDS011;42965;52.846;6.614;2024-03-22T11:06:49;13.55;;;10.35;;
57087;SDS011;42965;52.846;6.614;2024-03-22T11:09:23;16.33;;;12.02;;
57087;SDS011;42965;52.846;6.614;2024-03-22T11:11:53;11.93;;;9.70;;
57087;SDS011;42965;52.846;6.614;2024-03-22T11:14:20;11.30;;;9.50;;
57087;SDS011;42965;52.846;6.614;2024-03-22T11:16:47;13.63;;;9.85;;
57087;SDS011;42965;52.846;6.614;2024-03-22T11:19:13;10.85;;;9.48;;
57087;SDS011;42965;52.846;6.614;2024-03-22T11:21:39;10.32;;;8.65;;
57087;SDS011;42965;52.846;6.614;2024-03-22T11:24:06;11.57;;;9.23;;
57087;SDS011;42965;52.846;6.614;2024-03-22T11:26:32;10.30;;;7.82;;
57087;SDS011;42965;52.846;6.614;2024-03-22T11:28:59;9.48;;;7.35;;
57087;SDS011;42965;52.846;6.614;2024-03-22T11:31:29;10.18;;;7.82;;
57087;SDS011;42965;52.846;6.614;2024-03-22T11:33:56;11.63;;;8.30;;
57087;SDS011;42965;52.846;6.614;2024-03-22T11:36:22;9.90;;;7.80;;
57087;SDS011;42965;52.846;6.614;2024-03-22T11:38:49;11.05;;;7.30;;
57087;SDS011;42965;52.846;6.614;2024-03-22T11:41:18;10.70;;;7.35;;
57087;SDS011;42965;52.846;6.614;2024-03-22T11:43:51;9.60;;;7.00;;
57087;SDS011;42965;52.846;6.614;2024-03-22T11:46:18;10.52;;;7.43;;
57087;SDS011;42965;52.846;6.614;2024-03-22T11:48:51;9.73;;;6.00;;
57087;SDS011;42965;52.846;6.614;2024-03-22T11:51:20;8.15;;;6.18;;
57087;SDS011;42965;52.846;6.614;2024-03-22T11:53:53;8.75;;;6.20;;
57087;SDS011;42965;52.846;6.614;2024-03-22T11:56:21;8.82;;;5.78;;
57087;SDS011;42965;52.846;6.614;2024-03-22T11:58:48;7.95;;;5.65;;
57087;SDS011;42965;52.846;6.614;2024-03-22T12:01:15;9.10;;;5.53;;
57087;SDS011;42965;52.846;6.614;2024-03-22T12:03:44;6.63;;;5.07;;
57087;SDS011;42965;52.846;6.614;2024-03-22T12:06:10;7.70;;;5.57;;
57087;SDS011;42965;52.846;6.614;2024-03-22T12:08:37;9.40;;;5.47;;
57087;SDS011;42965;52.846;6.614;2024-03-22T12:11:09;9.82;;;7.63;;
57087;SDS011;42965;52.846;6.614;2024-03-22T12:13:37;8.55;;;5.88;;
57087;SDS011;42965;52.846;6.614;2024-03-22T12:16:07;7.65;;;5.85;;
57087;SDS011;42965;52.846;6.614;2024-03-22T12:18:33;7.45;;;5.63;;
57087;SDS011;42965;52.846;6.614;2024-03-22T12:21:00;8.35;;;5.45;;
57087;SDS011;42965;52.846;6.614;2024-03-22T12:23:29;9.88;;;5.68;;
57087;SDS011;42965;52.846;6.614;2024-03-22T12:25:55;9.02;;;5.93;;
57087;SDS011;42965;52.846;6.614;2024-03-22T12:28:21;6.68;;;4.00;;
57087;SDS011;42965;52.846;6.614;2024-03-22T12:30:50;6.95;;;4.55;;
57087;SDS011;42965;52.846;6.614;2024-03-22T12:33:17;5.65;;;3.83;;
57087;SDS011;42965;52.846;6.614;2024-03-22T12:35:44;5.93;;;4.70;;
57087;SDS011;42965;52.846;6.614;2024-03-22T12:38:11;7.38;;;4.30;;
57087;SDS011;42965;52.846;6.614;2024-03-22T12:40:39;6.32;;;2.95;;
57087;SDS011;42965;52.846;6.614;2024-03-22T12:43:06;14.35;;;5.63;;
57087;SDS011;42965;52.846;6.614;2024-03-22T12:45:36;8.65;;;4.65;;
57087;SDS011;42965;52.846;6.614;2024-03-22T12:48:02;7.88;;;3.95;;
57087;SDS011;42965;52.846;6.614;2024-03-22T12:50:30;10.20;;;3.40;;
57087;SDS011;42965;52.846;6.614;2024-03-22T12:52:57;7.95;;;3.55;;
57087;SDS011;42965;52.846;6.614;2024-03-22T12:55:23;8.93;;;3.15;;
57087;SDS011;42965;52.846;6.614;2024-03-22T12:57:51;7.35;;;3.72;;
57087;SDS011;42965;52.846;6.614;2024-03-22T13:00:17;8.77;;;3.65;;
57087;SDS011;42965;52.846;6.614;2024-03-22T13:02:46;6.88;;;3.25;;
57087;SDS011;42965;52.846;6.614;2024-03-22T13:05:12;9.88;;;4.18;;
57087;SDS011;42965;52.846;6.614;2024-03-22T13:07:38;8.52;;;3.47;;
57087;SDS011;42965;52.846;6.614;2024-03-22T13:10:05;7.32;;;3.10;;
57087;SDS011;42965;52.846;6.614;2024-03-22T13:12:31;10.32;;;3.15;;
57087;SDS011;42965;52.846;6.614;2024-03-22T13:15:00;8.32;;;2.85;;
57087;SDS011;42965;52.846;6.614;2024-03-22T13:17:27;7.18;;;3.42;;
57087;SDS011;42965;52.846;6.614;2024-03-22T13:19:53;12.57;;;4.20;;
57087;SDS011;42965;52.846;6.614;2024-03-22T13:22:19;8.50;;;5.20;;
57087;SDS011;42965;52.846;6.614;2024-03-22T13:24:46;11.02;;;4.35;;
57087;SDS011;42965;52.846;6.614;2024-03-22T13:27:13;11.20;;;5.00;;
57087;SDS011;42965;52.846;6.614;2024-03-22T13:29:40;10.73;;;4.70;;
57087;SDS011;42965;52.846;6.614;2024-03-22T13:32:06;14.95;;;5.20;;
57087;SDS011;42965;52.846;6.614;2024-03-22T13:34:36;12.57;;;6.00;;
57087;SDS011;42965;52.846;6.614;2024-03-22T13:37:04;11.68;;;5.78;;
57087;SDS011;42965;52.846;6.614;2024-03-22T13:39:32;11.10;;;5.65;;
57087;SDS011;42965;52.846;6.614;2024-03-22T13:41:58;12.40;;;5.40;;
57087;SDS011;42965;52.846;6.614;2024-03-22T13:44:24;12.60;;;5.30;;
57087;SDS011;42965;52.846;6.614;2024-03-22T13:46:50;13.23;;;5.65;;
57087;SDS011;42965;52.846;6.614;2024-03-22T13:49:17;13.65;;;5.82;;
57087;SDS011;42965;52.846;6.614;2024-03-22T13:51:49;11.35;;;6.10;;
57087;SDS011;42965;52.846;6.614;2024-03-22T13:54:15;12.43;;;6.15;;
57087;SDS011;42965;52.846;6.614;2024-03-22T13:56:42;15.20;;;5.88;;
57087;SDS011;42965;52.846;6.614;2024-03-22T13:59:08;17.67;;;6.63;;
57087;SDS011;42965;52.846;6.614;2024-03-22T14:01:35;12.32;;;6.07;;
57087;SDS011;42965;52.846;6.614;2024-03-22T14:04:02;16.27;;;6.53;;
57087;SDS011;42965;52.846;6.614;2024-03-22T14:06:30;14.75;;;7.03;;
57087;SDS011;42965;52.846;6.614;2024-03-22T14:08:58;13.90;;;6.97;;
57087;SDS011;42965;52.846;6.614;2024-03-22T14:11:28;14.98;;;7.18;;
57087;SDS011;42965;52.846;6.614;2024-03-22T14:13:59;15.35;;;7.55;;
57087;SDS011;42965;52.846;6.614;2024-03-22T14:16:25;13.18;;;7.25;;
57087;SDS011;42965;52.846;6.614;2024-03-22T14:18:51;17.40;;;8.20;;
57087;SDS011;42965;52.846;6.614;2024-03-22T14:21:18;14.65;;;7.55;;
57087;SDS011;42965;52.846;6.614;2024-03-22T14:23:48;20.65;;;8.30;;
57087;SDS011;42965;52.846;6.614;2024-03-22T14:26:15;17.50;;;7.57;;
57087;SDS011;42965;52.846;6.614;2024-03-22T14:28:43;15.13;;;8.73;;
57087;SDS011;42965;52.846;6.614;2024-03-22T14:31:10;14.50;;;8.13;;